Time;durP1;ratioP1;P1;durP2;ratioP2;P2;SDS_P1;SDS_P2;PMS_P1;PMS_P2;Temp;Humidity;BMP_temperature;BMP_pressure;BME280_temperature;BME280_humidity;BME280_pressure;Samples;Min_cycle;Max_cycle;Signal;HPM_P1;HPM_P2
2023/06/03 00:01:18;;;;;;;14.15;5.05;;;14.20;99.90;;;;;;5053381;28;20025;-64
2023/06/03 00:03:44;;;;;;;11.43;4.72;;;14.20;99.90;;;;;;5058369;28;20032;-64
2023/06/03 00:06:10;;;;;;;14.55;4.72;;;14.10;99.90;;;;;;5056216;28;20044;-64
2023/06/03 00:08:35;;;;;;;9.93;4.78;;;14.10;99.90;;;;;;5058066;28;20044;-65
2023/06/03 00:11:01;;;;;;;13.65;4.68;;;14.20;99.90;;;;;;5057686;28;20064;-64
2023/06/03 00:13:26;;;;;;;13.90;4.72;;;14.10;99.90;;;;;;5048448;28;20174;-65
2023/06/03 00:15:52;;;;;;;14.13;4.90;;;14.00;99.90;;;;;;5060292;28;20064;-64
2023/06/03 00:18:17;;;;;;;11.88;4.63;;;13.90;99.90;;;;;;5058511;28;20025;-64
2023/06/03 00:20:47;;;;;;;12.27;5.20;;;14.00;99.90;;;;;;5060043;28;20048;-65
2023/06/03 00:23:15;;;;;;;13.90;5.05;;;14.00;99.90;;;;;;5057258;28;20051;-64
2023/06/03 00:25:40;;;;;;;13.80;5.05;;;14.10;99.90;;;;;;5055521;28;20059;-64
2023/06/03 00:28:06;;;;;;;12.15;4.45;;;14.00;99.90;;;;;;5053518;28;20033;-64
2023/06/03 00:30:31;;;;;;;13.77;5.10;;;14.10;99.90;;;;;;5056321;28;20071;-64
2023/06/03 00:32:57;;;;;;;12.25;5.00;;;13.90;99.90;;;;;;5054685;28;20480;-66
2023/06/03 00:35:23;;;;;;;16.73;4.90;;;13.90;99.90;;;;;;5053966;28;20045;-64
2023/06/03 00:37:48;;;;;;;15.68;5.25;;;13.90;99.90;;;;;;5052830;28;20047;-65
2023/06/03 00:40:14;;;;;;;16.73;5.28;;;13.90;99.90;;;;;;5049612;28;20556;-66
2023/06/03 00:42:41;;;;;;;10.18;4.90;;;13.90;99.90;;;;;;5062571;28;20135;-66
2023/06/03 00:45:06;;;;;;;13.77;5.10;;;13.90;99.90;;;;;;5056427;28;20158;-64
2023/06/03 00:47:32;;;;;;;12.95;4.93;;;13.80;99.90;;;;;;5051891;28;20090;-66
2023/06/03 00:49:58;;;;;;;15.23;4.88;;;13.90;99.90;;;;;;5055499;28;20025;-66
2023/06/03 00:52:24;;;;;;;11.93;4.93;;;13.90;99.90;;;;;;5053433;28;20051;-64
2023/06/03 00:54:51;;;;;;;13.05;4.93;;;13.90;99.90;;;;;;5052040;28;20025;-65
2023/06/03 00:57:19;;;;;;;14.05;5.35;;;13.70;99.90;;;;;;5053831;28;20124;-64
2023/06/03 00:59:45;;;;;;;13.27;4.80;;;13.80;99.90;;;;;;5058755;28;20047;-64
2023/06/03 01:02:12;;;;;;;13.43;5.07;;;13.70;99.90;;;;;;5054150;28;20040;-66
2023/06/03 01:04:38;;;;;;;13.00;5.22;;;13.70;99.90;;;;;;5058729;28;20036;-66
2023/06/03 01:07:27;;;;;;;13.55;4.93;;;13.70;99.90;;;;;;5057534;28;20090;-64
2023/06/03 01:10:20;;;;;;;14.38;5.55;;;13.70;99.90;;;;;;5049542;28;20047;-64
2023/06/03 01:12:50;;;;;;;16.65;5.30;;;13.60;99.90;;;;;;5055061;28;20036;-64
2023/06/03 01:15:23;;;;;;;11.45;5.45;;;13.50;99.90;;;;;;5052112;28;20653;-64
2023/06/03 01:17:52;;;;;;;16.67;5.72;;;13.50;99.90;;;;;;5060012;28;20170;-65
2023/06/03 01:20:19;;;;;;;13.85;5.72;;;13.50;99.90;;;;;;5055479;28;20389;-66
2023/06/03 01:22:49;;;;;;;16.27;5.72;;;13.50;99.90;;;;;;5054257;28;20036;-68
2023/06/03 01:25:16;;;;;;;13.18;5.63;;;13.50;99.90;;;;;;5051272;28;20079;-64
2023/06/03 01:27:48;;;;;;;20.40;6.95;;;13.50;99.90;;;;;;5051571;28;20028;-65
2023/06/03 01:30:20;;;;;;;15.15;5.85;;;13.50;99.90;;;;;;5056920;28;20025;-63
2023/06/03 01:32:48;;;;;;;18.50;6.53;;;13.60;99.90;;;;;;5050400;28;20106;-65
2023/06/03 01:35:14;;;;;;;22.20;6.72;;;13.70;99.90;;;;;;5055414;28;20031;-64
2023/06/03 01:37:40;;;;;;;16.58;5.70;;;13.60;99.90;;;;;;5057446;28;20458;-65
2023/06/03 01:40:07;;;;;;;21.17;6.95;;;13.50;99.90;;;;;;5055255;28;20036;-64
2023/06/03 01:42:34;;;;;;;14.82;6.20;;;13.60;99.90;;;;;;5062630;28;20082;-65
2023/06/03 01:45:01;;;;;;;13.77;6.13;;;13.50;99.90;;;;;;5052909;28;20041;-65
2023/06/03 01:47:27;;;;;;;13.90;6.20;;;13.50;99.90;;;;;;5060657;28;20124;-64
2023/06/03 01:49:53;;;;;;;12.20;6.32;;;13.50;99.90;;;;;;5054751;28;20120;-65
2023/06/03 01:52:19;;;;;;;12.65;6.40;;;13.50;99.90;;;;;;5053661;28;20013;-64
2023/06/03 01:54:45;;;;;;;17.42;6.00;;;13.50;99.90;;;;;;5054573;28;20059;-64
2023/06/03 01:57:10;;;;;;;12.02;5.50;;;13.30;99.90;;;;;;5056524;28;20063;-64
2023/06/03 01:59:36;;;;;;;19.83;6.13;;;13.40;99.90;;;;;;5052591;28;20029;-66
2023/06/03 02:02:02;;;;;;;14.38;5.88;;;13.40;99.90;;;;;;5052056;28;20036;-63
2023/06/03 02:04:28;;;;;;;15.23;6.13;;;13.50;99.90;;;;;;5053260;28;20033;-65
2023/06/03 02:06:56;;;;;;;15.60;6.40;;;13.50;99.90;;;;;;5057516;28;20420;-64
2023/06/03 02:09:27;;;;;;;12.35;6.15;;;13.50;99.90;;;;;;5055074;28;20480;-64
2023/06/03 02:11:53;;;;;;;17.45;6.38;;;13.40;99.90;;;;;;5051539;28;20482;-65
2023/06/03 02:14:19;;;;;;;14.00;6.20;;;13.30;99.90;;;;;;5057083;28;20488;-64
2023/06/03 02:16:45;;;;;;;11.27;5.97;;;13.30;99.90;;;;;;5059110;28;20119;-64
2023/06/03 02:19:21;;;;;;;14.63;6.47;;;13.20;99.90;;;;;;5052899;28;20190;-64
2023/06/03 02:21:47;;;;;;;18.38;6.28;;;13.30;99.90;;;;;;5054995;28;20059;-66
2023/06/03 02:24:17;;;;;;;13.63;6.45;;;13.30;99.90;;;;;;5059623;28;20033;-64
2023/06/03 02:26:50;;;;;;;10.55;6.20;;;13.20;99.90;;;;;;5046412;28;20463;-64
2023/06/03 02:29:22;;;;;;;14.63;6.22;;;13.10;99.90;;;;;;5049790;28;20703;-64
2023/06/03 02:31:48;;;;;;;13.43;6.18;;;13.10;99.90;;;;;;5056093;28;20106;-65
2023/06/03 02:34:14;;;;;;;12.57;6.38;;;13.20;99.90;;;;;;5053837;28;20104;-64
2023/06/03 02:36:40;;;;;;;13.35;6.53;;;13.30;99.90;;;;;;5058113;28;20051;-65
2023/06/03 02:39:07;;;;;;;14.30;6.40;;;13.30;99.90;;;;;;5050829;28;20718;-64
2023/06/03 02:41:33;;;;;;;15.60;6.70;;;13.30;99.90;;;;;;5055724;28;20021;-66
2023/06/03 02:43:59;;;;;;;14.35;6.40;;;13.30;99.90;;;;;;5059272;28;20118;-66
2023/06/03 02:46:24;;;;;;;13.60;6.07;;;13.30;99.90;;;;;;5051572;28;20061;-65
2023/06/03 02:48:50;;;;;;;15.13;6.15;;;13.30;99.90;;;;;;5054759;28;20052;-64
2023/06/03 02:51:15;;;;;;;12.77;6.25;;;13.00;99.90;;;;;;5050638;28;20030;-66
2023/06/03 02:53:41;;;;;;;13.75;6.80;;;12.90;99.90;;;;;;5052390;28;20427;-65
2023/06/03 02:56:06;;;;;;;11.20;5.80;;;13.00;99.90;;;;;;5052543;28;20652;-63
2023/06/03 02:58:32;;;;;;;9.95;5.57;;;12.90;99.90;;;;;;5055119;28;20416;-64
2023/06/03 03:00:58;;;;;;;16.10;6.18;;;13.00;99.90;;;;;;5055937;28;20043;-66
2023/06/03 03:03:25;;;;;;;13.05;5.72;;;12.80;99.90;;;;;;5048551;28;20037;-64
2023/06/03 03:05:54;;;;;;;14.60;6.65;;;12.80;99.90;;;;;;5048767;28;20567;-66
2023/06/03 03:08:21;;;;;;;11.45;5.57;;;12.80;99.90;;;;;;5051287;28;20025;-64
2023/06/03 03:10:46;;;;;;;12.10;5.75;;;12.90;99.90;;;;;;5048080;28;20632;-66
2023/06/03 03:13:12;;;;;;;10.23;5.97;;;12.70;99.90;;;;;;5055236;28;20107;-64
2023/06/03 03:15:37;;;;;;;10.07;5.45;;;12.70;99.90;;;;;;5057281;28;20032;-64
2023/06/03 03:18:03;;;;;;;12.95;5.88;;;12.60;99.90;;;;;;5053185;28;20051;-64
2023/06/03 03:20:29;;;;;;;11.20;5.90;;;12.80;99.90;;;;;;5049907;28;20043;-64
2023/06/03 03:22:55;;;;;;;11.25;6.38;;;12.80;99.90;;;;;;5056483;28;20063;-66
2023/06/03 03:25:21;;;;;;;13.65;5.78;;;13.00;99.90;;;;;;5056199;28;20059;-64
2023/06/03 03:27:47;;;;;;;12.20;6.30;;;13.00;99.90;;;;;;5057125;28;20572;-64
2023/06/03 03:30:13;;;;;;;15.18;6.35;;;12.90;99.90;;;;;;5055490;28;20036;-64
2023/06/03 03:32:39;;;;;;;14.70;6.38;;;12.70;99.90;;;;;;5054234;28;20404;-64
2023/06/03 03:35:10;;;;;;;13.93;6.15;;;12.80;99.90;;;;;;5050688;28;20108;-64
2023/06/03 03:37:36;;;;;;;12.55;5.88;;;12.70;99.90;;;;;;5052604;28;20037;-64
2023/06/03 03:40:03;;;;;;;12.82;5.50;;;12.70;99.90;;;;;;5053204;28;20029;-66
2023/06/03 03:42:29;;;;;;;9.18;5.50;;;12.70;99.90;;;;;;5055992;28;20029;-66
2023/06/03 03:44:58;;;;;;;9.88;5.53;;;12.70;99.90;;;;;;5052126;28;20029;-66
2023/06/03 03:47:23;;;;;;;11.05;5.82;;;9.70;99.90;;;;;;5049118;28;20033;-64
2023/06/03 03:49:49;;;;;;;12.68;5.97;;;12.60;99.90;;;;;;5050464;28;20546;-66
2023/06/03 03:52:27;;;;;;;12.13;5.75;;;12.40;99.90;;;;;;5052170;28;20064;-64
2023/06/03 03:54:52;;;;;;;11.27;5.78;;;12.50;99.90;;;;;;5050629;28;20055;-64
2023/06/03 03:57:19;;;;;;;11.02;5.53;;;12.50;99.90;;;;;;5050424;28;20641;-64
2023/06/03 03:59:45;;;;;;;11.45;5.72;;;12.40;99.90;;;;;;5058467;28;20148;-64
2023/06/03 04:02:11;;;;;;;9.90;5.60;;;12.50;99.90;;;;;;5051143;28;20068;-65
2023/06/03 04:04:44;;;;;;;11.07;5.60;;;12.40;99.90;;;;;;5051401;28;20033;-65
2023/06/03 04:07:14;;;;;;;12.75;5.75;;;12.40;99.90;;;;;;5055213;28;20181;-64
2023/06/03 04:09:42;;;;;;;9.10;5.20;;;12.40;99.90;;;;;;5061880;28;20035;-65
2023/06/03 04:12:23;;;;;;;10.80;5.25;;;12.40;99.90;;;;;;5059429;28;20037;-63
2023/06/03 04:14:51;;;;;;;8.88;5.18;;;12.50;99.90;;;;;;5051130;28;20477;-65
2023/06/03 04:17:20;;;;;;;11.65;5.60;;;12.30;99.90;;;;;;5054072;28;20120;-64
2023/06/03 04:19:47;;;;;;;11.18;5.28;;;12.40;99.90;;;;;;5053151;28;20123;-64
2023/06/03 04:22:19;;;;;;;12.50;5.50;;;12.50;99.90;;;;;;5054900;28;20041;-64
2023/06/03 04:24:45;;;;;;;11.70;5.03;;;12.60;99.90;;;;;;5051407;28;20531;-65
2023/06/03 04:27:10;;;;;;;9.40;5.10;;;12.70;99.90;;;;;;5055201;28;20044;-64
2023/06/03 04:29:36;;;;;;;10.55;4.75;;;12.70;99.90;;;;;;5054708;28;20041;-65
2023/06/03 04:32:01;;;;;;;9.48;4.80;;;12.80;99.90;;;;;;5051556;28;20637;-60
2023/06/03 04:34:28;;;;;;;8.07;4.65;;;12.80;99.90;;;;;;5057951;28;20047;-64
2023/06/03 04:36:54;;;;;;;9.15;5.07;;;12.80;99.90;;;;;;5056931;28;20037;-64
2023/06/03 04:39:20;;;;;;;10.02;5.13;;;12.70;99.90;;;;;;5059522;28;20048;-64
2023/06/03 04:41:46;;;;;;;10.30;4.63;;;12.90;99.90;;;;;;5059038;28;20039;-64
2023/06/03 04:44:13;;;;;;;10.75;5.13;;;13.10;99.90;;;;;;5060523;28;20051;-63
2023/06/03 04:46:40;;;;;;;10.32;5.10;;;13.10;99.90;;;;;;5050866;28;20515;-69
2023/06/03 04:49:08;;;;;;;7.88;5.00;;;13.10;99.90;;;;;;5052945;28;20504;-69
2023/06/03 04:51:34;;;;;;;7.25;4.60;;;13.10;99.90;;;;;;5060595;28;20036;-69
2023/06/03 04:54:00;;;;;;;9.15;4.63;;;13.00;99.90;;;;;;5057121;28;20557;-69
2023/06/03 04:56:29;;;;;;;10.65;4.90;;;13.10;99.90;;;;;;5058410;28;20045;-69
2023/06/03 04:59:00;;;;;;;9.38;4.53;;;13.20;99.90;;;;;;5064960;28;20040;-69
2023/06/03 05:01:26;;;;;;;9.95;5.00;;;13.30;99.90;;;;;;5053025;28;20051;-69
2023/06/03 05:03:55;;;;;;;11.88;5.40;;;13.00;99.90;;;;;;5056933;28;20476;-69
2023/06/03 05:06:21;;;;;;;11.63;5.07;;;13.20;99.90;;;;;;5058048;28;20037;-69
2023/06/03 05:08:48;;;;;;;11.10;4.78;;;13.20;99.90;;;;;;5061592;28;20480;-69
2023/06/03 05:11:17;;;;;;;10.13;4.60;;;13.60;99.90;;;;;;5057611;28;20041;-69
2023/06/03 05:13:43;;;;;;;10.30;5.10;;;13.50;99.90;;;;;;5059289;28;20033;-69
2023/06/03 05:16:10;;;;;;;11.35;4.82;;;13.60;99.90;;;;;;5061335;28;20033;-70
2023/06/03 05:18:36;;;;;;;11.10;4.65;;;13.70;99.90;;;;;;5059685;28;20052;-69
2023/06/03 05:21:02;;;;;;;10.48;4.80;;;13.80;99.90;;;;;;5056544;28;20457;-69
2023/06/03 05:23:28;;;;;;;10.85;4.47;;;14.00;99.90;;;;;;5061940;28;20040;-69
2023/06/03 05:25:53;;;;;;;8.07;4.13;;;14.10;99.90;;;;;;5053701;28;20417;-69
2023/06/03 05:28:19;;;;;;;11.07;4.30;;;13.80;99.90;;;;;;5060231;28;20072;-69
2023/06/03 05:30:45;;;;;;;13.05;3.78;;;13.90;99.90;;;;;;5057607;28;20425;-69
2023/06/03 05:33:32;;;;;;;11.93;4.25;;;14.00;99.90;;;;;;5048313;28;20287;-69
2023/06/03 05:35:58;;;;;;;10.25;3.92;;;13.90;99.90;;;;;;5052477;28;20696;-69
2023/06/03 05:38:24;;;;;;;8.68;3.70;;;14.10;99.90;;;;;;5057555;28;20040;-69
2023/06/03 05:40:51;;;;;;;8.82;3.70;;;14.20;99.90;;;;;;5060446;28;20025;-70
2023/06/03 05:43:17;;;;;;;6.78;3.53;;;14.30;99.90;;;;;;5056425;28;20036;-69
2023/06/03 05:45:43;;;;;;;9.25;3.90;;;14.20;99.90;;;;;;5059134;28;20029;-69
2023/06/03 05:48:10;;;;;;;8.85;3.75;;;14.20;99.90;;;;;;5058510;28;20392;-69
2023/06/03 05:50:47;;;;;;;12.23;4.05;;;14.30;99.90;;;;;;5061817;28;20029;-69
2023/06/03 05:53:12;;;;;;;9.35;3.95;;;14.40;99.90;;;;;;5054601;28;20489;-69
2023/06/03 05:55:38;;;;;;;8.35;3.70;;;14.50;99.90;;;;;;5057870;28;20067;-69
2023/06/03 05:58:03;;;;;;;7.03;3.35;;;14.60;99.90;;;;;;5060326;28;20028;-69
2023/06/03 06:00:29;;;;;;;7.68;3.40;;;14.70;99.90;;;;;;5059234;28;20039;-69
2023/06/03 06:02:55;;;;;;;10.88;3.10;;;14.60;99.90;;;;;;5050897;28;20060;-69
2023/06/03 06:05:21;;;;;;;8.43;3.05;;;14.50;99.90;;;;;;5056769;28;20033;-69
2023/06/03 06:07:47;;;;;;;10.48;3.40;;;14.60;99.90;;;;;;5055879;28;20032;-69
2023/06/03 06:10:12;;;;;;;7.88;2.97;;;14.60;99.90;;;;;;5054157;28;20109;-69
2023/06/03 06:12:38;;;;;;;7.65;2.80;;;14.70;99.90;;;;;;5057080;28;20089;-69
2023/06/03 06:15:04;;;;;;;9.77;2.58;;;14.70;99.90;;;;;;5056558;28;20408;-69
2023/06/03 06:17:29;;;;;;;7.22;2.60;;;14.70;99.90;;;;;;5056157;28;20059;-69
2023/06/03 06:19:55;;;;;;;9.25;2.53;;;14.70;99.90;;;;;;5048554;28;20025;-69
2023/06/03 06:22:20;;;;;;;6.90;2.47;;;14.80;99.90;;;;;;5050934;28;20040;-69
2023/06/03 06:24:46;;;;;;;8.05;2.30;;;14.80;99.90;;;;;;5054428;28;20727;-69
2023/06/03 06:27:12;;;;;;;9.65;2.55;;;14.80;99.90;;;;;;5049949;28;20427;-71
2023/06/03 06:29:37;;;;;;;7.00;2.17;;;14.90;99.90;;;;;;5051950;28;20032;-69
2023/06/03 06:32:06;;;;;;;7.13;2.00;;;15.40;99.90;;;;;;5050162;28;20124;-69
2023/06/03 06:34:34;;;;;;;6.30;2.10;;;15.30;99.90;;;;;;5054457;28;20535;-69
2023/06/03 06:37:00;;;;;;;8.40;2.63;;;15.30;99.90;;;;;;5054701;28;20036;-69
2023/06/03 06:39:34;;;;;;;4.60;1.70;;;15.30;99.90;;;;;;5048971;28;20057;-69
2023/06/03 06:42:10;;;;;;;4.22;2.00;;;15.40;99.90;;;;;;5051925;28;20085;-69
2023/06/03 06:44:50;;;;;;;3.15;1.95;;;15.30;99.90;;;;;;5049734;28;20041;-69
2023/06/03 06:47:23;;;;;;;3.40;1.63;;;15.30;99.90;;;;;;5056006;28;20481;-70
2023/06/03 06:49:50;;;;;;;4.53;1.70;;;15.30;99.90;;;;;;5049132;28;20032;-69
2023/06/03 06:52:16;;;;;;;7.78;2.38;;;15.40;99.90;;;;;;5052505;28;20443;-69
2023/06/03 06:54:42;;;;;;;4.32;1.70;;;15.80;99.90;;;;;;5056987;28;20052;-69
2023/06/03 06:57:08;;;;;;;3.20;1.80;;;15.60;99.90;;;;;;5051075;28;20109;-68
2023/06/03 06:59:34;;;;;;;3.25;1.67;;;15.80;99.90;;;;;;5051789;28;20485;-69
2023/06/03 07:01:59;;;;;;;5.03;1.80;;;15.70;99.90;;;;;;5050210;28;20083;-69
2023/06/03 07:04:25;;;;;;;6.03;1.42;;;16.00;99.90;;;;;;5051418;28;20068;-67
2023/06/03 07:06:51;;;;;;;3.55;1.50;;;16.10;99.90;;;;;;5050349;28;20055;-68
2023/06/03 07:09:16;;;;;;;6.22;1.90;;;16.20;99.90;;;;;;5056964;28;20036;-68
2023/06/03 07:11:46;;;;;;;10.68;1.85;;;16.40;99.90;;;;;;5057460;28;20119;-68
2023/06/03 07:14:13;;;;;;;6.97;2.08;;;16.30;99.90;;;;;;5063518;28;20062;-67
2023/06/03 07:16:41;;;;;;;3.20;1.48;;;16.30;99.90;;;;;;5054740;28;20086;-68
2023/06/03 07:19:06;;;;;;;5.53;2.25;;;16.30;99.90;;;;;;5050576;28;20497;-67
2023/06/03 07:21:33;;;;;;;6.90;1.65;;;16.40;99.90;;;;;;5051041;28;20039;-66
2023/06/03 07:23:59;;;;;;;6.38;1.75;;;16.60;99.90;;;;;;5057207;28;20044;-68
2023/06/03 07:26:27;;;;;;;6.78;1.50;;;16.90;99.90;;;;;;5053072;28;20049;-67
2023/06/03 07:28:56;;;;;;;4.65;1.60;;;16.60;99.90;;;;;;5054271;28;20040;-68
2023/06/03 07:31:22;;;;;;;5.70;1.63;;;16.60;99.90;;;;;;5057437;28;20099;-68
2023/06/03 07:33:55;;;;;;;6.05;1.70;;;16.70;99.90;;;;;;5060891;28;20123;-68
2023/06/03 07:36:22;;;;;;;5.50;1.98;;;16.80;99.90;;;;;;5049521;28;20036;-68
2023/06/03 07:39:08;;;;;;;3.78;1.42;;;17.10;99.90;;;;;;5054804;28;20029;-68
2023/06/03 07:41:51;;;;;;;7.68;1.70;;;17.00;99.90;;;;;;5062609;28;20486;-67
2023/06/03 07:44:40;;;;;;;5.20;1.88;;;16.90;99.90;;;;;;5050716;28;20036;-67
2023/06/03 07:47:06;;;;;;;6.85;1.83;;;17.20;99.90;;;;;;5051165;28;20052;-67
2023/06/03 07:49:33;;;;;;;7.00;1.80;;;17.20;99.90;;;;;;5046118;28;20104;-68
2023/06/03 07:51:58;;;;;;;6.75;1.58;;;17.20;99.90;;;;;;5047273;28;20212;-68
2023/06/03 07:54:26;;;;;;;7.50;1.95;;;17.40;99.90;;;;;;5046202;28;20477;-68
2023/06/03 07:56:54;;;;;;;4.47;1.77;;;17.50;99.90;;;;;;5053325;28;20540;-68
2023/06/03 07:59:21;;;;;;;8.13;1.58;;;17.60;99.90;;;;;;5052110;28;20531;-68
2023/06/03 08:01:50;;;;;;;7.43;1.70;;;17.60;99.90;;;;;;5050043;28;20044;-68
2023/06/03 08:04:26;;;;;;;9.57;1.70;;;17.60;99.90;;;;;;5042616;28;20516;-68
2023/06/03 08:06:52;;;;;;;12.30;1.73;;;17.80;99.90;;;;;;5047789;28;20407;-67
2023/06/03 08:09:28;;;;;;;4.50;1.70;;;17.80;99.90;;;;;;5048040;28;20042;-68
2023/06/03 08:11:58;;;;;;;9.35;1.48;;;17.60;99.90;;;;;;5046233;28;20029;-68
2023/06/03 08:14:27;;;;;;;5.97;1.52;;;17.70;99.90;;;;;;5062196;28;20480;-68
2023/06/03 08:16:54;;;;;;;4.10;1.60;;;18.00;99.90;;;;;;5060553;28;20052;-68
2023/06/03 08:19:20;;;;;;;2.95;1.30;;;18.10;99.90;;;;;;5065046;28;20048;-68
2023/06/03 08:21:45;;;;;;;3.28;1.40;;;17.90;99.90;;;;;;5061417;28;20468;-67
2023/06/03 08:24:13;;;;;;;5.18;1.60;;;18.00;99.90;;;;;;5056404;28;20036;-68
2023/06/03 08:26:40;;;;;;;6.13;2.10;;;17.90;99.90;;;;;;5056731;28;20495;-67
2023/06/03 08:29:06;;;;;;;8.63;1.88;;;18.20;98.10;;;;;;5057539;28;20053;-67
2023/06/03 08:31:34;;;;;;;5.22;1.33;;;18.10;96.90;;;;;;5059828;28;20127;-67
2023/06/03 08:34:01;;;;;;;3.30;1.48;;;18.10;97.40;;;;;;5060705;28;20032;-67
2023/06/03 08:36:27;;;;;;;4.93;1.40;;;18.20;96.60;;;;;;5056678;28;20093;-67
2023/06/03 08:38:53;;;;;;;2.85;1.20;;;18.20;95.70;;;;;;5058552;28;20041;-67
2023/06/03 08:41:19;;;;;;;3.72;1.15;;;18.50;96.00;;;;;;5056750;28;20033;-68
2023/06/03 08:44:02;;;;;;;7.93;1.70;;;18.50;94.90;;;;;;5060502;28;20037;-68
2023/06/03 08:46:40;;;;;;;3.47;1.40;;;18.30;93.50;;;;;;5061247;28;20035;-67
2023/06/03 08:49:11;;;;;;;5.95;1.33;;;18.50;94.10;;;;;;5062986;28;20036;-67
2023/06/03 08:51:42;;;;;;;7.40;1.75;;;18.60;95.00;;;;;;5055461;28;20038;-68
2023/06/03 08:54:13;;;;;;;6.95;1.45;;;18.60;94.20;;;;;;5057801;28;20044;-66
2023/06/03 08:56:51;;;;;;;7.20;1.38;;;18.70;92.10;;;;;;5060128;28;20036;-68
2023/06/03 08:59:20;;;;;;;4.85;2.15;;;18.60;90.70;;;;;;5059818;28;20492;-67
2023/06/03 09:01:49;;;;;;;8.65;1.60;;;18.40;90.10;;;;;;5061271;28;20036;-67
2023/06/03 09:04:15;;;;;;;8.57;1.23;;;18.60;91.20;;;;;;5056069;28;20059;-67
2023/06/03 09:06:44;;;;;;;4.25;1.17;;;18.70;91.10;;;;;;5060414;28;20036;-57
2023/06/03 09:09:11;;;;;;;5.50;1.38;;;18.60;90.30;;;;;;5061682;28;20036;-57
2023/06/03 09:11:38;;;;;;;6.20;1.48;;;18.50;87.70;;;;;;5056969;28;20488;-57
2023/06/03 09:14:04;;;;;;;5.20;1.30;;;18.80;90.30;;;;;;5060582;28;20455;-57
2023/06/03 09:16:32;;;;;;;4.20;1.40;;;19.00;89.30;;;;;;5057845;28;20505;-57
2023/06/03 09:18:57;;;;;;;7.03;1.27;;;19.00;90.20;;;;;;5057450;28;20033;-58
2023/06/03 09:21:23;;;;;;;3.60;1.27;;;19.00;87.40;;;;;;5059652;28;20075;-57
2023/06/03 09:23:51;;;;;;;5.03;1.40;;;19.20;91.60;;;;;;5053833;28;20028;-57
2023/06/03 09:26:17;;;;;;;5.80;2.30;;;19.30;85.60;;;;;;5054651;28;20819;-58
2023/06/03 09:28:44;;;;;;;9.18;5.47;;;19.40;87.30;;;;;;5057284;28;20137;-58
2023/06/03 09:31:10;;;;;;;7.40;1.67;;;19.30;83.30;;;;;;5051327;28;20049;-57
2023/06/03 09:33:36;;;;;;;2.72;1.40;;;19.40;83.40;;;;;;5054686;28;20609;-57
2023/06/03 09:36:12;;;;;;;6.45;1.55;;;19.60;82.90;;;;;;5055808;28;20033;-59
2023/06/03 09:38:52;;;;;;;3.67;1.27;;;19.50;83.00;;;;;;5050370;28;20102;-57
2023/06/03 09:41:28;;;;;;;5.32;1.40;;;19.40;78.70;;;;;;5050016;28;20162;-57
2023/06/03 09:44:08;;;;;;;8.93;1.55;;;19.30;83.40;;;;;;5058777;28;20039;-57
2023/06/03 09:46:34;;;;;;;3.03;1.27;;;19.30;80.10;;;;;;5057499;28;20037;-58
2023/06/03 09:49:16;;;;;;;7.90;1.60;;;19.50;80.00;;;;;;5054560;28;20051;-57
2023/06/03 09:51:47;;;;;;;3.55;1.38;;;19.50;77.10;;;;;;5058785;28;20035;-57
2023/06/03 09:54:14;;;;;;;4.95;1.33;;;19.50;76.30;;;;;;5049218;28;20052;-57
2023/06/03 09:56:41;;;;;;;5.32;1.20;;;19.40;80.60;;;;;;5054580;28;20102;-57
2023/06/03 09:59:14;;;;;;;5.22;1.15;;;19.60;78.40;;;;;;5055654;28;20103;-57
2023/06/03 10:01:41;;;;;;;5.22;1.40;;;19.70;78.90;;;;;;5053899;28;20048;-57
2023/06/03 10:04:07;;;;;;;3.40;1.30;;;19.70;80.10;;;;;;5055096;28;20192;-55
2023/06/03 10:06:35;;;;;;;7.55;1.30;;;19.70;77.20;;;;;;5057757;28;20495;-55
2023/06/03 10:09:18;;;;;;;6.35;1.35;;;19.70;73.40;;;;;;5053467;28;20534;-55
2023/06/03 10:11:50;;;;;;;5.38;1.50;;;19.60;77.40;;;;;;5055642;28;20028;-55
2023/06/03 10:14:26;;;;;;;3.97;1.35;;;19.90;78.00;;;;;;5050144;28;20059;-55
2023/06/03 10:17:06;;;;;;;4.82;1.30;;;20.10;76.60;;;;;;5052445;28;20064;-55
2023/06/03 10:19:34;;;;;;;4.07;1.30;;;20.00;75.90;;;;;;5049655;28;20556;-55
2023/06/03 10:22:00;;;;;;;2.80;1.20;;;20.00;78.20;;;;;;5049884;28;20033;-55
2023/06/03 10:24:29;;;;;;;5.00;1.52;;;19.90;74.30;;;;;;5049629;28;20048;-55
2023/06/03 10:26:54;;;;;;;6.68;1.60;;;20.10;76.00;;;;;;5058188;28;20028;-57
2023/06/03 10:29:20;;;;;;;6.22;1.55;;;20.20;79.80;;;;;;5054803;28;20072;-57
2023/06/03 10:31:49;;;;;;;3.63;1.52;;;20.00;78.10;;;;;;5055027;28;20040;-58
2023/06/03 10:34:15;;;;;;;7.28;1.70;;;19.90;76.70;;;;;;5053011;28;20036;-57
2023/06/03 10:36:49;;;;;;;4.35;1.40;;;20.10;78.90;;;;;;5050460;28;20476;-57
2023/06/03 10:39:15;;;;;;;2.88;1.40;;;20.10;77.50;;;;;;5058180;28;20120;-57
2023/06/03 10:41:41;;;;;;;3.63;1.52;;;20.20;76.60;;;;;;5055103;28;20619;-57
2023/06/03 10:44:07;;;;;;;4.55;1.30;;;20.20;77.40;;;;;;5051216;28;20645;-58
2023/06/03 10:46:36;;;;;;;5.10;1.60;;;20.40;77.00;;;;;;5048680;28;20883;-58
2023/06/03 10:49:06;;;;;;;4.55;1.38;;;20.50;76.00;;;;;;5047371;28;20496;-60
2023/06/03 10:52:00;;;;;;;4.22;1.40;;;20.30;72.90;;;;;;5049777;28;20039;-58
2023/06/03 10:54:47;;;;;;;4.85;1.83;;;20.30;77.80;;;;;;5015700;28;20776;-57
2023/06/03 10:57:16;;;;;;;3.17;1.30;;;20.20;74.10;;;;;;5051504;28;20491;-58
2023/06/03 10:59:46;;;;;;;5.25;1.63;;;20.10;74.80;;;;;;5050833;28;20448;-57
2023/06/03 11:02:12;;;;;;;5.82;1.40;;;20.30;73.80;;;;;;5049465;28;20550;-58
2023/06/03 11:04:40;;;;;;;5.07;1.33;;;20.40;77.60;;;;;;5050191;28;20407;-58
2023/06/03 11:07:33;;;;;;;6.03;1.45;;;20.60;74.20;;;;;;5048870;28;20037;-58
2023/06/03 11:10:00;;;;;;;4.63;1.50;;;20.70;75.50;;;;;;5056260;28;20051;-58
2023/06/03 11:12:48;;;;;;;6.60;1.50;;;20.70;72.50;;;;;;5051415;28;20342;-58
2023/06/03 11:15:14;;;;;;;5.88;1.63;;;20.60;74.10;;;;;;5052418;28;20649;-57
2023/06/03 11:17:42;;;;;;;3.47;1.60;;;20.20;72.10;;;;;;5049669;28;20115;-58
2023/06/03 11:20:08;;;;;;;3.85;1.58;;;20.40;75.20;;;;;;5053838;28;20036;-58
2023/06/03 11:22:37;;;;;;;4.10;1.90;;;20.60;75.50;;;;;;5057849;28;20479;-58
2023/06/03 11:25:03;;;;;;;3.15;1.40;;;20.50;70.90;;;;;;5050934;28;20045;-58
2023/06/03 11:27:30;;;;;;;4.38;1.55;;;20.40;75.60;;;;;;5051308;28;20048;-57
2023/06/03 11:30:01;;;;;;;3.65;1.38;;;20.50;76.40;;;;;;5047935;28;20036;-58
2023/06/03 11:32:28;;;;;;;6.03;1.77;;;20.60;74.80;;;;;;5045184;28;20106;-58
2023/06/03 11:35:01;;;;;;;3.60;1.60;;;20.80;75.00;;;;;;5053582;28;20043;-58
2023/06/03 11:37:36;;;;;;;4.30;1.65;;;20.60;75.70;;;;;;5055817;28;20405;-58
2023/06/03 11:40:05;;;;;;;4.78;1.85;;;20.70;72.90;;;;;;5054512;28;20509;-58
2023/06/03 11:42:51;;;;;;;4.85;1.80;;;20.70;73.20;;;;;;5051098;28;20611;-58
2023/06/03 11:45:17;;;;;;;6.65;1.70;;;20.80;71.40;;;;;;5047195;28;20629;-58
2023/06/03 11:47:57;;;;;;;9.85;1.83;;;20.70;72.60;;;;;;5054470;28;20037;-58
2023/06/03 11:50:24;;;;;;;3.83;1.67;;;20.80;75.40;;;;;;5049206;28;20036;-58
2023/06/03 11:52:50;;;;;;;4.53;1.58;;;20.70;69.80;;;;;;5054877;28;20032;-58
2023/06/03 11:55:29;;;;;;;2.88;1.52;;;20.60;70.70;;;;;;5055592;28;20112;-58
2023/06/03 11:58:07;;;;;;;4.18;1.60;;;20.80;72.00;;;;;;5051159;28;20048;-58
2023/06/03 12:00:33;;;;;;;2.95;1.50;;;;;;;;;;5058067;28;20516;-58
2023/06/03 12:02:58;;;;;;;4.72;1.88;;;20.30;68.80;;;;;;5052515;28;20063;-58
2023/06/03 12:05:24;;;;;;;4.97;1.85;;;20.50;71.60;;;;;;5057216;28;20406;-58
2023/06/03 12:07:59;;;;;;;4.72;1.88;;;20.60;71.30;;;;;;5046122;28;20583;-58
2023/06/03 12:10:26;;;;;;;3.58;1.80;;;20.40;68.70;;;;;;5059198;28;20025;-58
2023/06/03 12:12:52;;;;;;;5.90;1.83;;;20.70;70.90;;;;;;5053983;28;20056;-58
2023/06/03 12:15:19;;;;;;;3.78;1.52;;;20.60;67.30;;;;;;5056823;28;20441;-57
2023/06/03 12:17:44;;;;;;;5.25;1.55;;;20.50;67.70;;;;;;5054532;28;20025;-57
2023/06/03 12:20:25;;;;;;;6.18;1.92;;;20.50;67.80;;;;;;5057718;28;20021;-57
2023/06/03 12:23:05;;;;;;;4.43;1.75;;;20.60;67.40;;;;;;5059824;28;20408;-58
2023/06/03 12:25:32;;;;;;;3.65;1.45;;;20.60;68.00;;;;;;5053905;28;20055;-60
2023/06/03 12:27:59;;;;;;;5.05;1.60;;;20.50;65.20;;;;;;5063465;28;20044;-58
2023/06/03 12:30:29;;;;;;;6.70;1.92;;;20.60;68.00;;;;;;5054599;28;20033;-57
2023/06/03 12:32:57;;;;;;;7.80;1.90;;;20.80;69.10;;;;;;5057988;28;20047;-57
2023/06/03 12:35:25;;;;;;;5.55;1.80;;;20.80;68.00;;;;;;5060324;28;20451;-58
2023/06/03 12:38:06;;;;;;;4.47;1.50;;;20.70;66.80;;;;;;5064046;28;20032;-57
2023/06/03 12:40:32;;;;;;;3.58;1.90;;;20.80;70.60;;;;;;5052453;28;20067;-57
2023/06/03 12:42:58;;;;;;;5.53;1.90;;;20.90;70.30;;;;;;5060792;28;20032;-57
2023/06/03 12:45:25;;;;;;;3.25;1.55;;;21.00;67.80;;;;;;5060016;28;20040;-57
2023/06/03 12:47:51;;;;;;;3.45;1.73;;;21.00;65.30;;;;;;5058868;28;20078;-57
2023/06/03 12:50:20;;;;;;;4.72;1.70;;;20.80;66.90;;;;;;5059989;28;20020;-56